sensor_id;sensor_type;location;lat;lon;timestamp;P1;durP1;ratioP1;P2;durP2;ratioP2
58878;SDS011;44660;42.664;23.266;2023-04-08T00:01:58;55.53;;;29.92;;
58878;SDS011;44660;42.664;23.266;2023-04-08T00:04:23;58.50;;;33.17;;
58878;SDS011;44660;42.664;23.266;2023-04-08T00:06:49;42.60;;;22.85;;
58878;SDS011;44660;42.664;23.266;2023-04-08T00:09:15;37.83;;;21.98;;
58878;SDS011;44660;42.664;23.266;2023-04-08T00:11:41;37.28;;;20.98;;
58878;SDS011;44660;42.664;23.266;2023-04-08T00:14:07;33.85;;;20.27;;
58878;SDS011;44660;42.664;23.266;2023-04-08T00:16:32;36.55;;;20.92;;
58878;SDS011;44660;42.664;23.266;2023-04-08T00:18:58;34.72;;;20.65;;
58878;SDS011;44660;42.664;23.266;2023-04-08T00:21:23;42.03;;;22.08;;
58878;SDS011;44660;42.664;23.266;2023-04-08T00:23:49;40.65;;;22.00;;
58878;SDS011;44660;42.664;23.266;2023-04-08T00:26:14;39.63;;;22.33;;
58878;SDS011;44660;42.664;23.266;2023-04-08T00:28:40;48.35;;;23.48;;
58878;SDS011;44660;42.664;23.266;2023-04-08T00:31:07;44.58;;;23.40;;
58878;SDS011;44660;42.664;23.266;2023-04-08T00:33:33;53.67;;;24.38;;
58878;SDS011;44660;42.664;23.266;2023-04-08T00:35:58;52.25;;;25.85;;
58878;SDS011;44660;42.664;23.266;2023-04-08T00:38:24;50.55;;;24.85;;
58878;SDS011;44660;42.664;23.266;2023-04-08T00:40:49;47.97;;;24.52;;
58878;SDS011;44660;42.664;23.266;2023-04-08T00:43:15;39.45;;;22.25;;
58878;SDS011;44660;42.664;23.266;2023-04-08T00:45:44;33.78;;;20.25;;
58878;SDS011;44660;42.664;23.266;2023-04-08T00:48:10;33.35;;;20.35;;
58878;SDS011;44660;42.664;23.266;2023-04-08T00:50:36;33.20;;;19.90;;
58878;SDS011;44660;42.664;23.266;2023-04-08T00:53:01;41.33;;;22.55;;
58878;SDS011;44660;42.664;23.266;2023-04-08T00:55:26;44.08;;;24.17;;
58878;SDS011;44660;42.664;23.266;2023-04-08T00:57:52;41.72;;;22.85;;
58878;SDS011;44660;42.664;23.266;2023-04-08T01:00:17;35.60;;;21.20;;
58878;SDS011;44660;42.664;23.266;2023-04-08T01:08:34;33.15;;;20.08;;
58878;SDS011;44660;42.664;23.266;2023-04-08T01:11:05;32.40;;;20.48;;
58878;SDS011;44660;42.664;23.266;2023-04-08T01:16:03;33.88;;;19.48;;
58878;SDS011;44660;42.664;23.266;2023-04-08T01:18:28;31.38;;;19.48;;
58878;SDS011;44660;42.664;23.266;2023-04-08T01:20:56;34.92;;;19.20;;
58878;SDS011;44660;42.664;23.266;2023-04-08T01:26:19;37.03;;;19.88;;
58878;SDS011;44660;42.664;23.266;2023-04-08T01:28:47;41.83;;;21.40;;
58878;SDS011;44660;42.664;23.266;2023-04-08T01:31:14;40.60;;;21.77;;
58878;SDS011;44660;42.664;23.266;2023-04-08T01:33:41;34.83;;;20.02;;
58878;SDS011;44660;42.664;23.266;2023-04-08T01:36:07;31.90;;;20.02;;
58878;SDS011;44660;42.664;23.266;2023-04-08T01:38:34;34.70;;;20.48;;
58878;SDS011;44660;42.664;23.266;2023-04-08T01:41:00;34.95;;;21.15;;
58878;SDS011;44660;42.664;23.266;2023-04-08T01:43:28;35.17;;;20.73;;
58878;SDS011;44660;42.664;23.266;2023-04-08T01:45:56;37.05;;;21.20;;
58878;SDS011;44660;42.664;23.266;2023-04-08T01:48:23;37.25;;;21.85;;
58878;SDS011;44660;42.664;23.266;2023-04-08T01:50:49;37.13;;;21.45;;
58878;SDS011;44660;42.664;23.266;2023-04-08T01:53:16;40.33;;;21.48;;
58878;SDS011;44660;42.664;23.266;2023-04-08T01:55:41;36.75;;;22.17;;
58878;SDS011;44660;42.664;23.266;2023-04-08T01:58:10;39.25;;;20.95;;
58878;SDS011;44660;42.664;23.266;2023-04-08T02:00:40;37.13;;;21.67;;
58878;SDS011;44660;42.664;23.266;2023-04-08T02:03:07;34.90;;;20.90;;
58878;SDS011;44660;42.664;23.266;2023-04-08T02:05:36;31.38;;;20.20;;
58878;SDS011;44660;42.664;23.266;2023-04-08T02:08:01;34.28;;;20.30;;
58878;SDS011;44660;42.664;23.266;2023-04-08T02:10:27;36.67;;;20.35;;
58878;SDS011;44660;42.664;23.266;2023-04-08T02:12:53;34.03;;;19.65;;
58878;SDS011;44660;42.664;23.266;2023-04-08T02:15:18;35.38;;;20.15;;
58878;SDS011;44660;42.664;23.266;2023-04-08T02:17:48;32.40;;;19.20;;
58878;SDS011;44660;42.664;23.266;2023-04-08T02:23:09;34.67;;;19.90;;
58878;SDS011;44660;42.664;23.266;2023-04-08T02:25:39;43.10;;;21.35;;
58878;SDS011;44660;42.664;23.266;2023-04-08T02:28:08;41.22;;;23.55;;
58878;SDS011;44660;42.664;23.266;2023-04-08T02:30:36;39.50;;;21.70;;
58878;SDS011;44660;42.664;23.266;2023-04-08T02:35:31;44.33;;;24.15;;
58878;SDS011;44660;42.664;23.266;2023-04-08T02:37:59;41.92;;;22.48;;
58878;SDS011;44660;42.664;23.266;2023-04-08T02:40:25;42.97;;;23.65;;
58878;SDS011;44660;42.664;23.266;2023-04-08T02:42:53;39.92;;;21.83;;
58878;SDS011;44660;42.664;23.266;2023-04-08T02:45:19;41.10;;;22.27;;
58878;SDS011;44660;42.664;23.266;2023-04-08T02:47:44;38.95;;;24.55;;
58878;SDS011;44660;42.664;23.266;2023-04-08T02:50:10;48.78;;;25.85;;
58878;SDS011;44660;42.664;23.266;2023-04-08T02:52:36;45.95;;;24.58;;
58878;SDS011;44660;42.664;23.266;2023-04-08T02:55:01;44.55;;;23.52;;
58878;SDS011;44660;42.664;23.266;2023-04-08T02:57:27;40.70;;;23.08;;
58878;SDS011;44660;42.664;23.266;2023-04-08T02:59:52;39.33;;;22.55;;
58878;SDS011;44660;42.664;23.266;2023-04-08T03:02:18;39.70;;;24.50;;
58878;SDS011;44660;42.664;23.266;2023-04-08T03:04:43;40.28;;;23.25;;
58878;SDS011;44660;42.664;23.266;2023-04-08T03:07:09;41.03;;;23.75;;
58878;SDS011;44660;42.664;23.266;2023-04-08T03:09:34;38.75;;;22.77;;
58878;SDS011;44660;42.664;23.266;2023-04-08T03:12:00;37.13;;;22.50;;
58878;SDS011;44660;42.664;23.266;2023-04-08T03:14:26;43.38;;;25.15;;
58878;SDS011;44660;42.664;23.266;2023-04-08T03:16:51;45.17;;;27.30;;
58878;SDS011;44660;42.664;23.266;2023-04-08T03:19:17;47.85;;;24.33;;
58878;SDS011;44660;42.664;23.266;2023-04-08T03:21:42;44.20;;;24.23;;
58878;SDS011;44660;42.664;23.266;2023-04-08T03:24:07;39.03;;;22.73;;
58878;SDS011;44660;42.664;23.266;2023-04-08T03:26:33;37.45;;;23.17;;
58878;SDS011;44660;42.664;23.266;2023-04-08T03:28:58;38.78;;;22.30;;
58878;SDS011;44660;42.664;23.266;2023-04-08T03:31:24;34.35;;;21.48;;
58878;SDS011;44660;42.664;23.266;2023-04-08T03:33:50;38.35;;;21.55;;
58878;SDS011;44660;42.664;23.266;2023-04-08T03:36:15;36.03;;;21.77;;
58878;SDS011;44660;42.664;23.266;2023-04-08T03:38:41;37.38;;;22.88;;
58878;SDS011;44660;42.664;23.266;2023-04-08T03:41:08;36.58;;;24.27;;
58878;SDS011;44660;42.664;23.266;2023-04-08T03:43:33;33.92;;;24.15;;
58878;SDS011;44660;42.664;23.266;2023-04-08T03:45:58;40.30;;;22.92;;
58878;SDS011;44660;42.664;23.266;2023-04-08T03:48:24;39.08;;;24.30;;
58878;SDS011;44660;42.664;23.266;2023-04-08T03:50:49;43.20;;;26.20;;
58878;SDS011;44660;42.664;23.266;2023-04-08T03:53:15;47.55;;;27.50;;
58878;SDS011;44660;42.664;23.266;2023-04-08T03:55:41;46.50;;;26.50;;
58878;SDS011;44660;42.664;23.266;2023-04-08T03:58:06;39.08;;;24.13;;
58878;SDS011;44660;42.664;23.266;2023-04-08T04:00:31;38.70;;;23.17;;
58878;SDS011;44660;42.664;23.266;2023-04-08T04:02:57;40.17;;;23.45;;
58878;SDS011;44660;42.664;23.266;2023-04-08T04:05:22;37.63;;;21.98;;
58878;SDS011;44660;42.664;23.266;2023-04-08T04:07:48;36.78;;;22.45;;
58878;SDS011;44660;42.664;23.266;2023-04-08T04:10:14;40.63;;;23.60;;
58878;SDS011;44660;42.664;23.266;2023-04-08T04:12:39;40.13;;;23.38;;
58878;SDS011;44660;42.664;23.266;2023-04-08T04:15:05;39.67;;;22.42;;
58878;SDS011;44660;42.664;23.266;2023-04-08T04:17:31;34.53;;;21.63;;
58878;SDS011;44660;42.664;23.266;2023-04-08T04:19:56;37.30;;;22.55;;
58878;SDS011;44660;42.664;23.266;2023-04-08T04:22:21;37.47;;;22.13;;
58878;SDS011;44660;42.664;23.266;2023-04-08T04:24:47;33.15;;;21.40;;
58878;SDS011;44660;42.664;23.266;2023-04-08T04:27:14;39.53;;;22.88;;
58878;SDS011;44660;42.664;23.266;2023-04-08T04:29:41;34.38;;;22.95;;
58878;SDS011;44660;42.664;23.266;2023-04-08T04:32:07;38.78;;;23.58;;
58878;SDS011;44660;42.664;23.266;2023-04-08T04:34:33;123.50;;;57.03;;
58878;SDS011;44660;42.664;23.266;2023-04-08T04:36:58;87.45;;;49.75;;
58878;SDS011;44660;42.664;23.266;2023-04-08T04:39:23;137.32;;;72.28;;
58878;SDS011;44660;42.664;23.266;2023-04-08T04:41:49;89.63;;;49.45;;
58878;SDS011;44660;42.664;23.266;2023-04-08T04:44:15;63.08;;;35.25;;
58878;SDS011;44660;42.664;23.266;2023-04-08T04:46:40;60.60;;;35.42;;
58878;SDS011;44660;42.664;23.266;2023-04-08T04:49:06;66.78;;;36.08;;
58878;SDS011;44660;42.664;23.266;2023-04-08T04:51:31;52.28;;;28.90;;
58878;SDS011;44660;42.664;23.266;2023-04-08T04:53:57;43.90;;;24.88;;
58878;SDS011;44660;42.664;23.266;2023-04-08T04:56:23;39.92;;;25.23;;
58878;SDS011;44660;42.664;23.266;2023-04-08T04:58:50;51.13;;;29.48;;
58878;SDS011;44660;42.664;23.266;2023-04-08T05:01:15;73.85;;;39.03;;
58878;SDS011;44660;42.664;23.266;2023-04-08T05:03:41;65.22;;;36.85;;
58878;SDS011;44660;42.664;23.266;2023-04-08T05:06:06;71.60;;;38.67;;
58878;SDS011;44660;42.664;23.266;2023-04-08T05:08:32;57.33;;;32.35;;
58878;SDS011;44660;42.664;23.266;2023-04-08T05:10:57;47.28;;;28.42;;
58878;SDS011;44660;42.664;23.266;2023-04-08T05:13:26;49.30;;;25.15;;
58878;SDS011;44660;42.664;23.266;2023-04-08T05:15:54;46.03;;;25.63;;
58878;SDS011;44660;42.664;23.266;2023-04-08T05:18:19;41.22;;;24.50;;
58878;SDS011;44660;42.664;23.266;2023-04-08T05:20:45;42.42;;;26.17;;
58878;SDS011;44660;42.664;23.266;2023-04-08T05:23:10;41.92;;;24.33;;
58878;SDS011;44660;42.664;23.266;2023-04-08T05:25:36;44.63;;;23.98;;
58878;SDS011;44660;42.664;23.266;2023-04-08T05:28:02;39.55;;;23.85;;
58878;SDS011;44660;42.664;23.266;2023-04-08T05:30:28;40.40;;;23.00;;
58878;SDS011;44660;42.664;23.266;2023-04-08T05:32:53;39.60;;;23.08;;
58878;SDS011;44660;42.664;23.266;2023-04-08T05:35:19;38.05;;;23.83;;
58878;SDS011;44660;42.664;23.266;2023-04-08T05:37:45;38.70;;;22.27;;
58878;SDS011;44660;42.664;23.266;2023-04-08T05:40:10;39.60;;;23.33;;
58878;SDS011;44660;42.664;23.266;2023-04-08T05:42:36;35.70;;;22.48;;
58878;SDS011;44660;42.664;23.266;2023-04-08T05:45:02;37.53;;;22.42;;
58878;SDS011;44660;42.664;23.266;2023-04-08T05:47:28;41.90;;;23.40;;
58878;SDS011;44660;42.664;23.266;2023-04-08T05:49:53;41.13;;;24.15;;
58878;SDS011;44660;42.664;23.266;2023-04-08T05:52:19;47.53;;;24.85;;
58878;SDS011;44660;42.664;23.266;2023-04-08T05:54:44;45.28;;;26.05;;
58878;SDS011;44660;42.664;23.266;2023-04-08T05:57:10;46.55;;;26.73;;
58878;SDS011;44660;42.664;23.266;2023-04-08T05:59:36;47.15;;;27.50;;
58878;SDS011;44660;42.664;23.266;2023-04-08T06:02:01;43.38;;;26.27;;
58878;SDS011;44660;42.664;23.266;2023-04-08T06:04:27;46.75;;;26.33;;
58878;SDS011;44660;42.664;23.266;2023-04-08T06:06:53;47.28;;;28.73;;
58878;SDS011;44660;42.664;23.266;2023-04-08T06:09:18;43.80;;;25.92;;
58878;SDS011;44660;42.664;23.266;2023-04-08T06:11:43;40.30;;;26.55;;
58878;SDS011;44660;42.664;23.266;2023-04-08T06:14:11;38.97;;;24.30;;
58878;SDS011;44660;42.664;23.266;2023-04-08T06:16:36;41.13;;;24.70;;
58878;SDS011;44660;42.664;23.266;2023-04-08T06:19:02;41.20;;;25.02;;
58878;SDS011;44660;42.664;23.266;2023-04-08T06:21:27;44.75;;;25.70;;
58878;SDS011;44660;42.664;23.266;2023-04-08T06:23:53;44.30;;;25.77;;
58878;SDS011;44660;42.664;23.266;2023-04-08T06:26:18;41.45;;;25.65;;
58878;SDS011;44660;42.664;23.266;2023-04-08T06:28:44;42.78;;;27.45;;
58878;SDS011;44660;42.664;23.266;2023-04-08T06:31:09;66.25;;;37.40;;
58878;SDS011;44660;42.664;23.266;2023-04-08T06:33:35;57.63;;;33.05;;
58878;SDS011;44660;42.664;23.266;2023-04-08T06:36:01;47.13;;;28.45;;
58878;SDS011;44660;42.664;23.266;2023-04-08T06:41:02;37.63;;;24.48;;
58878;SDS011;44660;42.664;23.266;2023-04-08T06:43:28;47.30;;;25.60;;
58878;SDS011;44660;42.664;23.266;2023-04-08T06:45:55;46.38;;;27.00;;
58878;SDS011;44660;42.664;23.266;2023-04-08T06:48:20;47.75;;;27.80;;
58878;SDS011;44660;42.664;23.266;2023-04-08T06:50:47;41.20;;;25.35;;
58878;SDS011;44660;42.664;23.266;2023-04-08T06:53:13;39.75;;;24.77;;
58878;SDS011;44660;42.664;23.266;2023-04-08T06:55:38;32.25;;;21.83;;
58878;SDS011;44660;42.664;23.266;2023-04-08T06:58:04;37.78;;;23.55;;
58878;SDS011;44660;42.664;23.266;2023-04-08T07:00:29;48.22;;;25.88;;
58878;SDS011;44660;42.664;23.266;2023-04-08T07:02:55;41.63;;;24.13;;
58878;SDS011;44660;42.664;23.266;2023-04-08T07:05:20;61.83;;;33.15;;
58878;SDS011;44660;42.664;23.266;2023-04-08T07:07:46;42.55;;;25.95;;
58878;SDS011;44660;42.664;23.266;2023-04-08T07:10:11;38.20;;;24.27;;
58878;SDS011;44660;42.664;23.266;2023-04-08T07:12:37;32.75;;;22.13;;
58878;SDS011;44660;42.664;23.266;2023-04-08T07:15:03;34.60;;;21.33;;
58878;SDS011;44660;42.664;23.266;2023-04-08T07:17:28;36.95;;;21.38;;
58878;SDS011;44660;42.664;23.266;2023-04-08T07:19:54;31.95;;;21.23;;
58878;SDS011;44660;42.664;23.266;2023-04-08T07:22:21;35.80;;;22.05;;
58878;SDS011;44660;42.664;23.266;2023-04-08T07:24:46;40.53;;;20.77;;
58878;SDS011;44660;42.664;23.266;2023-04-08T07:27:14;36.28;;;20.30;;
58878;SDS011;44660;42.664;23.266;2023-04-08T07:29:42;37.00;;;21.57;;
58878;SDS011;44660;42.664;23.266;2023-04-08T07:32:08;36.17;;;20.98;;
58878;SDS011;44660;42.664;23.266;2023-04-08T07:34:34;28.95;;;18.95;;
58878;SDS011;44660;42.664;23.266;2023-04-08T07:37:00;30.02;;;18.88;;
58878;SDS011;44660;42.664;23.266;2023-04-08T07:39:26;21.90;;;14.20;;
58878;SDS011;44660;42.664;23.266;2023-04-08T07:41:52;20.13;;;13.18;;
58878;SDS011;44660;42.664;23.266;2023-04-08T07:44:17;22.42;;;13.23;;
58878;SDS011;44660;42.664;23.266;2023-04-08T07:46:44;21.17;;;13.85;;
58878;SDS011;44660;42.664;23.266;2023-04-08T07:49:10;22.50;;;13.65;;
58878;SDS011;44660;42.664;23.266;2023-04-08T07:51:36;19.75;;;13.48;;
58878;SDS011;44660;42.664;23.266;2023-04-08T07:54:02;19.80;;;13.13;;
58878;SDS011;44660;42.664;23.266;2023-04-08T07:56:27;23.05;;;13.10;;
58878;SDS011;44660;42.664;23.266;2023-04-08T07:58:53;21.48;;;13.43;;
58878;SDS011;44660;42.664;23.266;2023-04-08T08:01:19;18.15;;;12.07;;
58878;SDS011;44660;42.664;23.266;2023-04-08T08:03:46;17.08;;;11.88;;
58878;SDS011;44660;42.664;23.266;2023-04-08T08:06:12;21.90;;;12.45;;
58878;SDS011;44660;42.664;23.266;2023-04-08T08:08:38;17.52;;;12.75;;
58878;SDS011;44660;42.664;23.266;2023-04-08T08:11:04;22.60;;;13.73;;
58878;SDS011;44660;42.664;23.266;2023-04-08T08:13:29;21.45;;;13.68;;
58878;SDS011;44660;42.664;23.266;2023-04-08T08:15:55;17.73;;;12.05;;
58878;SDS011;44660;42.664;23.266;2023-04-08T08:18:21;19.70;;;13.65;;
58878;SDS011;44660;42.664;23.266;2023-04-08T08:20:46;23.52;;;14.18;;
58878;SDS011;44660;42.664;23.266;2023-04-08T08:23:13;22.48;;;14.38;;
58878;SDS011;44660;42.664;23.266;2023-04-08T08:25:38;23.35;;;14.00;;
58878;SDS011;44660;42.664;23.266;2023-04-08T08:28:04;20.60;;;13.90;;
58878;SDS011;44660;42.664;23.266;2023-04-08T08:30:29;19.10;;;13.43;;
58878;SDS011;44660;42.664;23.266;2023-04-08T08:32:55;18.95;;;13.50;;
58878;SDS011;44660;42.664;23.266;2023-04-08T08:35:23;18.65;;;12.82;;
58878;SDS011;44660;42.664;23.266;2023-04-08T08:37:48;18.88;;;12.88;;
58878;SDS011;44660;42.664;23.266;2023-04-08T08:40:14;17.45;;;12.68;;
58878;SDS011;44660;42.664;23.266;2023-04-08T08:42:40;21.80;;;14.48;;
58878;SDS011;44660;42.664;23.266;2023-04-08T08:45:07;25.20;;;15.65;;
58878;SDS011;44660;42.664;23.266;2023-04-08T08:47:32;36.50;;;22.23;;
58878;SDS011;44660;42.664;23.266;2023-04-08T08:49:58;23.65;;;14.30;;
58878;SDS011;44660;42.664;23.266;2023-04-08T08:52:23;18.73;;;13.38;;
58878;SDS011;44660;42.664;23.266;2023-04-08T08:54:56;21.33;;;15.10;;
58878;SDS011;44660;42.664;23.266;2023-04-08T08:57:23;23.98;;;15.15;;
58878;SDS011;44660;42.664;23.266;2023-04-08T08:59:48;21.52;;;14.73;;
58878;SDS011;44660;42.664;23.266;2023-04-08T09:02:27;20.50;;;13.52;;
58878;SDS011;44660;42.664;23.266;2023-04-08T09:04:56;19.10;;;13.38;;
58878;SDS011;44660;42.664;23.266;2023-04-08T09:07:26;21.08;;;12.55;;
58878;SDS011;44660;42.664;23.266;2023-04-08T09:09:53;16.85;;;11.70;;
58878;SDS011;44660;42.664;23.266;2023-04-08T09:12:20;16.42;;;11.57;;
58878;SDS011;44660;42.664;23.266;2023-04-08T09:14:46;16.55;;;11.75;;
58878;SDS011;44660;42.664;23.266;2023-04-08T09:17:12;21.55;;;13.95;;
58878;SDS011;44660;42.664;23.266;2023-04-08T09:19:38;19.27;;;12.45;;
58878;SDS011;44660;42.664;23.266;2023-04-08T09:22:08;17.80;;;12.55;;
58878;SDS011;44660;42.664;23.266;2023-04-08T09:24:34;19.40;;;11.93;;
58878;SDS011;44660;42.664;23.266;2023-04-08T09:27:01;17.23;;;12.20;;
58878;SDS011;44660;42.664;23.266;2023-04-08T09:29:30;15.63;;;10.68;;
58878;SDS011;44660;42.664;23.266;2023-04-08T09:31:58;18.55;;;12.35;;
58878;SDS011;44660;42.664;23.266;2023-04-08T09:34:25;17.23;;;11.90;;
58878;SDS011;44660;42.664;23.266;2023-04-08T09:36:52;21.88;;;12.65;;
58878;SDS011;44660;42.664;23.266;2023-04-08T09:39:18;18.17;;;12.93;;
58878;SDS011;44660;42.664;23.266;2023-04-08T09:41:46;17.13;;;12.75;;
58878;SDS011;44660;42.664;23.266;2023-04-08T09:44:13;17.27;;;13.20;;
58878;SDS011;44660;42.664;23.266;2023-04-08T09:49:19;17.23;;;12.38;;
58878;SDS011;44660;42.664;23.266;2023-04-08T09:54:43;16.67;;;11.95;;
58878;SDS011;44660;42.664;23.266;2023-04-08T09:57:45;16.20;;;11.15;;
58878;SDS011;44660;42.664;23.266;2023-04-08T10:00:17;15.50;;;10.67;;
58878;SDS011;44660;42.664;23.266;2023-04-08T10:05:35;11.43;;;8.70;;
58878;SDS011;44660;42.664;23.266;2023-04-08T10:08:02;26.48;;;10.63;;
58878;SDS011;44660;42.664;23.266;2023-04-08T10:10:29;15.45;;;10.20;;
58878;SDS011;44660;42.664;23.266;2023-04-08T10:12:55;16.63;;;11.15;;
58878;SDS011;44660;42.664;23.266;2023-04-08T10:18:39;17.67;;;11.13;;
58878;SDS011;44660;42.664;23.266;2023-04-08T10:20:43;14.63;;;10.60;;
58878;SDS011;44660;42.664;23.266;2023-04-08T10:23:10;14.73;;;10.63;;
58878;SDS011;44660;42.664;23.266;2023-04-08T10:25:38;15.70;;;10.93;;
58878;SDS011;44660;42.664;23.266;2023-04-08T10:28:26;20.23;;;11.52;;
58878;SDS011;44660;42.664;23.266;2023-04-08T10:30:55;16.10;;;11.20;;
58878;SDS011;44660;42.664;23.266;2023-04-08T10:33:31;19.45;;;11.90;;
58878;SDS011;44660;42.664;23.266;2023-04-08T10:38:35;20.02;;;12.48;;
58878;SDS011;44660;42.664;23.266;2023-04-08T10:41:01;18.05;;;12.85;;
58878;SDS011;44660;42.664;23.266;2023-04-08T10:43:27;19.92;;;12.82;;
58878;SDS011;44660;42.664;23.266;2023-04-08T10:45:57;19.88;;;13.38;;
58878;SDS011;44660;42.664;23.266;2023-04-08T10:48:23;18.05;;;12.07;;
58878;SDS011;44660;42.664;23.266;2023-04-08T10:50:56;18.45;;;11.82;;
58878;SDS011;44660;42.664;23.266;2023-04-08T10:53:26;20.55;;;13.10;;
58878;SDS011;44660;42.664;23.266;2023-04-08T10:55:54;19.58;;;11.90;;
58878;SDS011;44660;42.664;23.266;2023-04-08T10:58:27;17.08;;;11.68;;
58878;SDS011;44660;42.664;23.266;2023-04-08T11:00:52;16.60;;;11.73;;
58878;SDS011;44660;42.664;23.266;2023-04-08T11:03:18;19.08;;;12.50;;
58878;SDS011;44660;42.664;23.266;2023-04-08T11:05:43;19.75;;;11.95;;
58878;SDS011;44660;42.664;23.266;2023-04-08T11:08:09;19.77;;;12.30;;
58878;SDS011;44660;42.664;23.266;2023-04-08T11:10:37;18.85;;;11.90;;
58878;SDS011;44660;42.664;23.266;2023-04-08T11:13:05;18.00;;;11.43;;
58878;SDS011;44660;42.664;23.266;2023-04-08T11:15:32;15.95;;;11.00;;
58878;SDS011;44660;42.664;23.266;2023-04-08T11:18:00;19.55;;;11.82;;
58878;SDS011;44660;42.664;23.266;2023-04-08T11:20:27;21.05;;;11.77;;
58878;SDS011;44660;42.664;23.266;2023-04-08T11:22:53;23.08;;;13.15;;
58878;SDS011;44660;42.664;23.266;2023-04-08T11:25:19;20.85;;;12.52;;
58878;SDS011;44660;42.664;23.266;2023-04-08T11:27:45;17.83;;;11.38;;
58878;SDS011;44660;42.664;23.266;2023-04-08T11:30:11;15.60;;;10.38;;
58878;SDS011;44660;42.664;23.266;2023-04-08T11:32:37;17.98;;;10.98;;
58878;SDS011;44660;42.664;23.266;2023-04-08T11:35:04;16.63;;;11.23;;
58878;SDS011;44660;42.664;23.266;2023-04-08T11:37:40;19.88;;;11.80;;
58878;SDS011;44660;42.664;23.266;2023-04-08T11:40:09;23.27;;;10.95;;
58878;SDS011;44660;42.664;23.266;2023-04-08T11:42:35;16.65;;;10.52;;
58878;SDS011;44660;42.664;23.266;2023-04-08T11:45:12;11.85;;;9.50;;
58878;SDS011;44660;42.664;23.266;2023-04-08T11:47:40;13.68;;;9.52;;
58878;SDS011;44660;42.664;23.266;2023-04-08T11:50:06;14.82;;;9.57;;
58878;SDS011;44660;42.664;23.266;2023-04-08T11:52:42;12.55;;;8.25;;
58878;SDS011;44660;42.664;23.266;2023-04-08T11:55:20;13.15;;;7.18;;
58878;SDS011;44660;42.664;23.266;2023-04-08T11:57:49;12.85;;;8.65;;
58878;SDS011;44660;42.664;23.266;2023-04-08T12:00:16;10.82;;;7.57;;
58878;SDS011;44660;42.664;23.266;2023-04-08T12:02:43;11.65;;;7.95;;
58878;SDS011;44660;42.664;23.266;2023-04-08T12:05:08;12.32;;;8.23;;
58878;SDS011;44660;42.664;23.266;2023-04-08T12:07:34;15.15;;;7.72;;
58878;SDS011;44660;42.664;23.266;2023-04-08T12:10:00;10.55;;;7.65;;
58878;SDS011;44660;42.664;23.266;2023-04-08T12:12:26;14.18;;;7.97;;
58878;SDS011;44660;42.664;23.266;2023-04-08T12:14:51;10.18;;;7.57;;
58878;SDS011;44660;42.664;23.266;2023-04-08T12:17:17;12.05;;;8.20;;
58878;SDS011;44660;42.664;23.266;2023-04-08T12:19:43;12.75;;;8.38;;
58878;SDS011;44660;42.664;23.266;2023-04-08T12:22:08;10.32;;;7.45;;
58878;SDS011;44660;42.664;23.266;2023-04-08T12:24:34;13.88;;;8.55;;
58878;SDS011;44660;42.664;23.266;2023-04-08T12:26:59;13.02;;;8.55;;
58878;SDS011;44660;42.664;23.266;2023-04-08T12:29:26;13.15;;;8.20;;
58878;SDS011;44660;42.664;23.266;2023-04-08T12:31:52;15.60;;;9.60;;
58878;SDS011;44660;42.664;23.266;2023-04-08T12:34:17;12.02;;;8.52;;
58878;SDS011;44660;42.664;23.266;2023-04-08T12:36:44;13.73;;;8.98;;
58878;SDS011;44660;42.664;23.266;2023-04-08T12:39:10;11.65;;;8.15;;
58878;SDS011;44660;42.664;23.266;2023-04-08T12:41:35;12.32;;;7.55;;
58878;SDS011;44660;42.664;23.266;2023-04-08T12:44:01;15.23;;;8.23;;
58878;SDS011;44660;42.664;23.266;2023-04-08T12:46:26;12.23;;;7.35;;
58878;SDS011;44660;42.664;23.266;2023-04-08T12:48:52;11.80;;;7.10;;
58878;SDS011;44660;42.664;23.266;2023-04-08T12:51:18;9.77;;;6.30;;
58878;SDS011;44660;42.664;23.266;2023-04-08T12:53:44;8.65;;;6.18;;
58878;SDS011;44660;42.664;23.266;2023-04-08T12:56:10;7.95;;;6.32;;
58878;SDS011;44660;42.664;23.266;2023-04-08T12:58:35;9.25;;;6.68;;
58878;SDS011;44660;42.664;23.266;2023-04-08T13:01:01;9.13;;;6.82;;
58878;SDS011;44660;42.664;23.266;2023-04-08T13:03:26;14.45;;;8.65;;
58878;SDS011;44660;42.664;23.266;2023-04-08T13:05:54;11.73;;;7.05;;
58878;SDS011;44660;42.664;23.266;2023-04-08T13:08:20;16.40;;;7.88;;
58878;SDS011;44660;42.664;23.266;2023-04-08T13:10:46;11.07;;;8.48;;
58878;SDS011;44660;42.664;23.266;2023-04-08T13:13:12;13.13;;;7.75;;
58878;SDS011;44660;42.664;23.266;2023-04-08T13:15:38;11.18;;;8.10;;
58878;SDS011;44660;42.664;23.266;2023-04-08T13:18:03;10.27;;;7.10;;
58878;SDS011;44660;42.664;23.266;2023-04-08T13:20:29;13.48;;;8.40;;
58878;SDS011;44660;42.664;23.266;2023-04-08T13:22:55;15.23;;;9.40;;
58878;SDS011;44660;42.664;23.266;2023-04-08T13:25:20;12.63;;;8.88;;
58878;SDS011;44660;42.664;23.266;2023-04-08T13:27:46;11.60;;;8.65;;
58878;SDS011;44660;42.664;23.266;2023-04-08T13:30:12;10.30;;;7.95;;
58878;SDS011;44660;42.664;23.266;2023-04-08T13:32:37;14.35;;;10.07;;
58878;SDS011;44660;42.664;23.266;2023-04-08T13:35:02;12.40;;;9.20;;
58878;SDS011;44660;42.664;23.266;2023-04-08T13:37:28;12.38;;;9.45;;
58878;SDS011;44660;42.664;23.266;2023-04-08T13:39:54;11.85;;;8.98;;
58878;SDS011;44660;42.664;23.266;2023-04-08T13:42:20;12.30;;;8.57;;
58878;SDS011;44660;42.664;23.266;2023-04-08T13:44:46;12.15;;;9.02;;
58878;SDS011;44660;42.664;23.266;2023-04-08T13:47:11;15.55;;;9.15;;
58878;SDS011;44660;42.664;23.266;2023-04-08T13:49:37;11.38;;;8.55;;
58878;SDS011;44660;42.664;23.266;2023-04-08T13:52:03;12.48;;;7.97;;
58878;SDS011;44660;42.664;23.266;2023-04-08T13:54:28;11.57;;;7.72;;
58878;SDS011;44660;42.664;23.266;2023-04-08T13:56:54;10.52;;;7.50;;
58878;SDS011;44660;42.664;23.266;2023-04-08T13:59:19;12.32;;;7.10;;
58878;SDS011;44660;42.664;23.266;2023-04-08T14:01:45;10.10;;;6.88;;
58878;SDS011;44660;42.664;23.266;2023-04-08T14:04:10;11.80;;;7.88;;
58878;SDS011;44660;42.664;23.266;2023-04-08T14:06:39;9.73;;;7.38;;
58878;SDS011;44660;42.664;23.266;2023-04-08T14:09:05;10.02;;;7.50;;
58878;SDS011;44660;42.664;23.266;2023-04-08T14:11:30;11.98;;;8.02;;
58878;SDS011;44660;42.664;23.266;2023-04-08T14:13:56;11.23;;;7.97;;
58878;SDS011;44660;42.664;23.266;2023-04-08T14:16:21;10.60;;;7.85;;
58878;SDS011;44660;42.664;23.266;2023-04-08T14:18:47;10.13;;;7.25;;
58878;SDS011;44660;42.664;23.266;2023-04-08T14:21:13;9.93;;;7.82;;
58878;SDS011;44660;42.664;23.266;2023-04-08T14:23:40;11.27;;;8.57;;
58878;SDS011;44660;42.664;23.266;2023-04-08T14:26:05;14.20;;;8.98;;
58878;SDS011;44660;42.664;23.266;2023-04-08T14:28:31;11.40;;;8.88;;
58878;SDS011;44660;42.664;23.266;2023-04-08T14:30:56;11.90;;;8.70;;
58878;SDS011;44660;42.664;23.266;2023-04-08T14:33:21;12.30;;;9.23;;
58878;SDS011;44660;42.664;23.266;2023-04-08T14:35:47;11.90;;;7.88;;
58878;SDS011;44660;42.664;23.266;2023-04-08T14:38:12;11.60;;;8.48;;
58878;SDS011;44660;42.664;23.266;2023-04-08T14:40:37;10.43;;;8.60;;